createdAt,value
2022-11-18T00:00:03.932Z,997.73
2022-11-18T00:01:03.940Z,997.69
2022-11-18T00:02:03.992Z,997.68
2022-11-18T00:03:03.955Z,997.67
2022-11-18T00:04:03.963Z,997.65
2022-11-18T00:05:03.975Z,997.63
2022-11-18T00:06:03.978Z,997.62
2022-11-18T00:07:04.026Z,997.63
2022-11-18T00:08:03.996Z,997.61
2022-11-18T00:09:04.008Z,997.65
2022-11-18T00:10:04.023Z,997.61
2022-11-18T00:11:04.023Z,997.61
2022-11-18T00:12:04.037Z,997.57
2022-11-18T00:13:04.039Z,997.62
2022-11-18T00:14:04.044Z,997.58
2022-11-18T00:15:04.056Z,997.58
2022-11-18T00:16:04.063Z,997.59
2022-11-18T00:17:04.098Z,997.58
2022-11-18T00:18:04.089Z,997.53
2022-11-18T00:19:04.091Z,997.57
2022-11-18T00:20:04.100Z,997.59
2022-11-18T00:21:04.105Z,997.56
2022-11-18T00:22:04.112Z,997.57
2022-11-18T00:23:04.119Z,997.53
2022-11-18T00:24:04.129Z,997.57
2022-11-18T00:25:04.143Z,997.56
2022-11-18T00:26:04.144Z,997.56
2022-11-18T00:27:04.156Z,997.55
2022-11-18T00:28:04.159Z,997.52
2022-11-18T00:29:04.170Z,997.56
2022-11-18T00:30:04.178Z,997.48
2022-11-18T00:31:04.184Z,997.56
2022-11-18T00:32:04.195Z,997.54
2022-11-18T00:33:04.201Z,997.55
2022-11-18T00:34:04.208Z,997.55
2022-11-18T00:35:04.221Z,997.52
2022-11-18T00:36:04.241Z,997.55
2022-11-18T00:37:04.254Z,997.60
2022-11-18T00:38:04.242Z,997.60
2022-11-18T00:39:04.250Z,997.53
2022-11-18T00:40:04.268Z,997.56
2022-11-18T00:41:04.267Z,997.65
2022-11-18T00:42:04.273Z,997.61
2022-11-18T00:43:04.283Z,997.63
2022-11-18T00:44:09.272Z,997.53
2022-11-18T00:45:04.298Z,997.53
2022-11-18T00:46:04.305Z,997.64
2022-11-18T00:47:04.312Z,997.56
2022-11-18T00:48:04.321Z,997.62
2022-11-18T00:49:04.330Z,997.57
2022-11-18T00:50:04.342Z,997.57
2022-11-18T00:51:04.344Z,997.60
2022-11-18T00:52:04.355Z,997.59
2022-11-18T00:53:04.361Z,997.57
2022-11-18T00:54:04.370Z,997.60
2022-11-18T00:55:04.389Z,997.58
2022-11-18T00:56:04.386Z,997.60
2022-11-18T00:57:04.394Z,997.57
2022-11-18T00:58:04.400Z,997.54
2022-11-18T00:59:04.409Z,997.54
2022-11-18T01:00:04.417Z,997.57
2022-11-18T01:01:04.480Z,997.51
2022-11-18T01:02:04.431Z,997.60
2022-11-18T01:03:04.440Z,997.58
2022-11-18T01:04:04.447Z,997.61
2022-11-18T01:05:04.455Z,997.58
2022-11-18T01:06:04.462Z,997.63
2022-11-18T01:07:04.514Z,997.65
2022-11-18T01:08:04.479Z,997.63
2022-11-18T01:09:04.489Z,997.65
2022-11-18T01:10:04.495Z,997.66
2022-11-18T01:11:04.505Z,997.63
2022-11-18T01:12:04.516Z,997.63
2022-11-18T01:13:04.521Z,997.70
2022-11-18T01:14:04.531Z,997.64
2022-11-18T01:15:04.536Z,997.67
2022-11-18T01:16:04.544Z,997.69
2022-11-18T01:17:04.552Z,997.69
2022-11-18T01:18:04.560Z,997.64
2022-11-18T01:19:04.567Z,997.63
2022-11-18T01:20:04.575Z,997.69
2022-11-18T01:21:04.585Z,997.67
2022-11-18T01:22:04.590Z,997.69
2022-11-18T01:23:04.598Z,997.73
2022-11-18T01:24:04.606Z,997.65
2022-11-18T01:25:04.615Z,997.71
2022-11-18T01:26:04.624Z,997.74
2022-11-18T01:27:04.629Z,997.74
2022-11-18T01:28:04.639Z,997.71
2022-11-18T01:29:04.648Z,997.72
2022-11-18T01:30:04.654Z,997.65
2022-11-18T01:31:04.667Z,997.66
2022-11-18T01:33:04.679Z,997.68
2022-11-18T01:34:04.688Z,997.66
2022-11-18T01:35:04.693Z,997.65
2022-11-18T01:36:04.702Z,997.74
2022-11-18T01:37:04.711Z,997.74
2022-11-18T01:38:04.716Z,997.70
2022-11-18T01:39:04.724Z,997.73
2022-11-18T01:40:04.731Z,997.74
2022-11-18T01:41:04.742Z,997.73
2022-11-18T01:42:04.751Z,997.74
2022-11-18T01:43:04.759Z,997.73
2022-11-18T01:44:04.765Z,997.77
2022-11-18T01:45:04.776Z,997.78
2022-11-18T01:46:04.780Z,997.75
2022-11-18T01:47:04.792Z,997.78
2022-11-18T01:48:04.797Z,997.75
2022-11-18T01:49:04.807Z,997.80
2022-11-18T01:50:04.814Z,997.75
2022-11-18T01:51:04.829Z,997.85
2022-11-18T01:52:04.831Z,997.81
2022-11-18T01:53:04.839Z,997.84
2022-11-18T01:54:04.846Z,997.84
2022-11-18T01:55:04.853Z,997.80
2022-11-18T01:56:04.862Z,997.80
2022-11-18T01:57:04.868Z,997.81
2022-11-18T01:58:04.878Z,997.79
2022-11-18T01:59:04.887Z,997.82
2022-11-18T02:00:04.893Z,997.67
2022-11-18T02:01:04.928Z,997.72
2022-11-18T02:02:04.953Z,997.80
2022-11-18T02:03:04.916Z,997.79
2022-11-18T02:04:04.925Z,997.84
2022-11-18T02:05:04.940Z,997.79
2022-11-18T02:06:04.945Z,997.82
2022-11-18T02:07:04.993Z,997.73
2022-11-18T02:08:04.956Z,997.83
2022-11-18T02:09:04.972Z,997.79
2022-11-18T02:10:04.984Z,997.79
2022-11-18T02:11:04.980Z,997.78
2022-11-18T02:12:05.049Z,997.78
2022-11-18T02:13:04.996Z,997.79
2022-11-18T02:14:05.004Z,997.84
2022-11-18T02:15:05.011Z,997.80
2022-11-18T02:16:05.018Z,997.74
2022-11-18T02:17:05.029Z,997.75
2022-11-18T02:18:05.035Z,997.80
2022-11-18T02:19:05.041Z,997.91
2022-11-18T02:20:05.048Z,997.85
2022-11-18T02:21:05.060Z,997.79
2022-11-18T02:22:05.064Z,997.78
2022-11-18T02:23:05.078Z,997.78
2022-11-18T02:24:05.083Z,997.71
2022-11-18T02:25:05.169Z,997.76
2022-11-18T02:26:05.096Z,997.78
2022-11-18T02:27:05.103Z,997.78
2022-11-18T02:28:05.109Z,997.72
2022-11-18T02:29:05.123Z,997.78
2022-11-18T02:30:05.152Z,997.81
2022-11-18T02:31:05.133Z,997.81
2022-11-18T02:32:05.148Z,997.83
2022-11-18T02:33:05.149Z,997.87
2022-11-18T02:34:05.156Z,997.86
2022-11-18T02:35:05.163Z,997.88
2022-11-18T02:36:05.172Z,997.84
2022-11-18T02:37:05.181Z,997.85
2022-11-18T02:38:05.187Z,997.97
2022-11-18T02:39:05.199Z,997.91
2022-11-18T02:40:05.204Z,998.01
2022-11-18T02:41:05.209Z,997.94
2022-11-18T02:42:05.221Z,997.98
2022-11-18T02:43:05.224Z,998.02
2022-11-18T02:44:05.232Z,998.06
2022-11-18T02:45:05.239Z,997.98
2022-11-18T02:46:05.246Z,998.01
2022-11-18T02:47:05.260Z,998.05
2022-11-18T02:48:05.266Z,998.02
2022-11-18T02:49:05.273Z,998.03
2022-11-18T02:50:05.278Z,997.96
2022-11-18T02:51:05.284Z,997.98
2022-11-18T02:52:05.291Z,997.98
2022-11-18T02:53:05.302Z,997.96
2022-11-18T02:54:05.307Z,997.91
2022-11-18T02:55:05.315Z,997.95
2022-11-18T02:56:05.323Z,997.99
2022-11-18T02:57:05.330Z,997.93
2022-11-18T02:58:05.339Z,997.96
2022-11-18T02:59:05.348Z,998.00
2022-11-18T03:00:05.356Z,997.94
2022-11-18T03:01:05.377Z,997.96
2022-11-18T03:02:05.370Z,997.92
2022-11-18T03:03:05.376Z,997.93
2022-11-18T03:04:05.384Z,997.99
2022-11-18T03:05:05.397Z,997.89
2022-11-18T03:06:05.398Z,997.90
2022-11-18T03:07:05.433Z,997.85
2022-11-18T03:08:05.414Z,997.89
2022-11-18T03:09:05.419Z,997.90
2022-11-18T03:10:05.429Z,997.88
2022-11-18T03:11:05.435Z,997.90
2022-11-18T03:12:05.450Z,997.85
2022-11-18T03:13:05.452Z,997.84
2022-11-18T03:14:05.460Z,997.85
2022-11-18T03:15:05.466Z,997.87
2022-11-18T03:16:05.472Z,997.82
2022-11-18T03:17:05.480Z,997.85
2022-11-18T03:18:05.489Z,997.81
2022-11-18T03:19:05.499Z,997.85
2022-11-18T03:20:05.502Z,997.84
2022-11-18T03:21:05.511Z,997.86
2022-11-18T03:22:05.518Z,997.87
2022-11-18T03:23:05.526Z,997.99
2022-11-18T03:24:05.537Z,997.91
2022-11-18T03:25:05.540Z,997.93
2022-11-18T03:26:05.549Z,997.92
2022-11-18T03:27:05.554Z,997.96
2022-11-18T03:28:05.568Z,997.97
2022-11-18T03:29:05.569Z,997.97
2022-11-18T03:30:05.578Z,998.03
2022-11-18T03:31:05.585Z,997.99
2022-11-18T03:32:05.595Z,997.98
2022-11-18T03:33:05.600Z,998.02
2022-11-18T03:34:05.608Z,998.05
2022-11-18T03:35:05.614Z,998.08
2022-11-18T03:36:05.623Z,998.06
2022-11-18T03:37:10.255Z,998.06
2022-11-18T03:38:05.636Z,998.09
2022-11-18T03:39:05.645Z,998.16
2022-11-18T03:40:05.653Z,998.12
2022-11-18T03:41:05.658Z,998.16
2022-11-18T03:42:05.667Z,998.13
2022-11-18T03:43:05.674Z,998.16
2022-11-18T03:44:05.681Z,998.19
2022-11-18T03:45:05.689Z,998.20
2022-11-18T03:46:05.696Z,998.10
2022-11-18T03:47:05.704Z,998.23
2022-11-18T03:48:05.711Z,998.16
2022-11-18T03:49:05.717Z,998.15
2022-11-18T03:50:05.731Z,998.20
2022-11-18T03:51:05.732Z,998.19
2022-11-18T03:52:05.740Z,998.23
2022-11-18T03:53:05.747Z,998.18
2022-11-18T03:54:05.754Z,998.19
2022-11-18T03:55:05.773Z,998.26
2022-11-18T03:56:05.768Z,998.23
2022-11-18T03:57:05.776Z,998.23
2022-11-18T03:58:05.781Z,998.22
2022-11-18T03:59:05.786Z,998.23
2022-11-18T04:00:05.797Z,998.25
2022-11-18T04:01:05.806Z,998.25
2022-11-18T04:02:05.854Z,998.30
2022-11-18T04:03:05.817Z,998.28
2022-11-18T04:04:05.826Z,998.29
2022-11-18T04:05:05.832Z,998.20
2022-11-18T04:06:05.840Z,998.30
2022-11-18T04:07:05.906Z,998.31
2022-11-18T04:08:05.879Z,998.30
2022-11-18T04:09:05.896Z,998.32
2022-11-18T04:10:05.878Z,998.30
2022-11-18T04:11:05.884Z,998.33
2022-11-18T04:12:05.918Z,998.35
2022-11-18T04:13:06.622Z,998.32
2022-11-18T04:14:05.925Z,998.37
2022-11-18T04:15:05.926Z,998.33
2022-11-18T04:16:05.939Z,998.41
2022-11-18T04:17:05.932Z,998.33
2022-11-18T04:18:05.933Z,998.32
2022-11-18T04:19:06.443Z,998.38
2022-11-18T04:20:05.937Z,998.39
2022-11-18T04:21:05.997Z,998.38
2022-11-18T04:22:05.953Z,998.42
2022-11-18T04:23:05.959Z,998.42
2022-11-18T04:24:05.966Z,998.37
2022-11-18T04:25:05.973Z,998.41
2022-11-18T04:26:05.980Z,998.43
2022-11-18T04:27:05.988Z,998.46
2022-11-18T04:28:05.995Z,998.50
2022-11-18T04:29:06.002Z,998.50
2022-11-18T04:30:06.018Z,998.50
2022-11-18T04:31:06.018Z,998.48
2022-11-18T04:32:06.029Z,998.52
2022-11-18T04:33:06.037Z,998.54
2022-11-18T04:34:06.037Z,998.58
2022-11-18T04:35:06.044Z,998.58
2022-11-18T04:36:06.051Z,998.60
2022-11-18T04:37:06.061Z,998.61
2022-11-18T04:38:06.064Z,998.63
2022-11-18T04:39:06.073Z,998.63
2022-11-18T04:40:06.079Z,998.64
2022-11-18T04:41:06.087Z,998.67
2022-11-18T04:42:06.093Z,998.68
2022-11-18T04:43:06.102Z,998.68
2022-11-18T04:44:06.108Z,998.69
2022-11-18T04:45:06.117Z,998.68
2022-11-18T04:46:06.122Z,998.71
2022-11-18T04:47:06.130Z,998.73
2022-11-18T04:48:06.134Z,998.73
2022-11-18T04:49:06.145Z,998.77
2022-11-18T04:50:06.152Z,998.77
2022-11-18T04:51:06.166Z,998.79
2022-11-18T04:52:06.167Z,998.78
2022-11-18T04:53:06.171Z,998.78
2022-11-18T04:54:06.181Z,998.75
2022-11-18T04:55:06.193Z,998.73
2022-11-18T04:56:06.191Z,998.83
2022-11-18T04:57:06.199Z,998.86
2022-11-18T04:58:06.209Z,998.90
2022-11-18T04:59:06.214Z,998.88
2022-11-18T05:00:06.223Z,998.93
2022-11-18T05:01:06.282Z,998.86
2022-11-18T05:02:06.235Z,998.83
2022-11-18T05:03:06.238Z,998.85
2022-11-18T05:04:06.253Z,998.89
2022-11-18T05:05:06.257Z,998.83
2022-11-18T05:06:06.261Z,998.84
2022-11-18T05:07:06.419Z,998.86
2022-11-18T05:08:06.276Z,998.84
2022-11-18T05:09:06.282Z,998.83
2022-11-18T05:10:06.291Z,998.80
2022-11-18T05:11:06.297Z,998.79
2022-11-18T05:12:06.305Z,998.81
2022-11-18T05:13:06.311Z,998.79
2022-11-18T05:14:06.317Z,998.92
2022-11-18T05:15:06.325Z,998.75
2022-11-18T05:16:06.333Z,998.77
2022-11-18T05:17:06.339Z,998.81
2022-11-18T05:18:06.354Z,998.84
2022-11-18T05:19:06.355Z,998.87
2022-11-18T05:20:06.359Z,998.89
2022-11-18T05:21:06.367Z,998.89
2022-11-18T05:22:06.375Z,998.89
2022-11-18T05:23:06.380Z,998.89
2022-11-18T05:24:06.388Z,998.86
2022-11-18T05:25:06.399Z,998.93
2022-11-18T05:26:06.401Z,998.95
2022-11-18T05:27:06.408Z,998.95
2022-11-18T05:28:06.418Z,998.99
2022-11-18T05:29:06.425Z,999.00
2022-11-18T05:30:06.432Z,998.99
2022-11-18T05:31:06.437Z,998.97
2022-11-18T05:32:06.448Z,998.95
2022-11-18T05:33:06.452Z,998.94
2022-11-18T05:34:06.456Z,998.97
2022-11-18T05:35:06.467Z,998.95
2022-11-18T05:36:06.467Z,998.95
2022-11-18T05:37:06.476Z,998.97
2022-11-18T05:38:06.484Z,998.98
2022-11-18T05:39:06.492Z,998.99
2022-11-18T05:40:06.499Z,999.00
2022-11-18T05:41:06.506Z,999.08
2022-11-18T05:42:06.511Z,999.08
2022-11-18T05:43:06.519Z,999.12
2022-11-18T05:44:06.528Z,999.10
2022-11-18T05:45:06.538Z,999.09
2022-11-18T05:46:06.540Z,999.15
2022-11-18T05:47:06.550Z,999.14
2022-11-18T05:48:06.555Z,999.17
2022-11-18T05:49:06.564Z,999.15
2022-11-18T05:50:06.568Z,999.20
2022-11-18T05:51:06.576Z,999.21
2022-11-18T05:52:06.585Z,999.19
2022-11-18T05:53:06.593Z,999.27
2022-11-18T05:54:06.599Z,999.17
2022-11-18T05:55:06.608Z,999.27
2022-11-18T05:56:06.616Z,999.29
2022-11-18T05:57:06.619Z,999.30
2022-11-18T05:58:06.631Z,999.30
2022-11-18T05:59:06.639Z,999.34
2022-11-18T06:00:06.643Z,999.38
2022-11-18T06:01:06.651Z,999.40
2022-11-18T06:02:06.655Z,999.36
2022-11-18T06:03:06.802Z,999.39
2022-11-18T06:04:06.671Z,999.38
2022-11-18T06:05:06.678Z,999.46
2022-11-18T06:06:06.686Z,999.43
2022-11-18T06:07:06.772Z,999.44
2022-11-18T06:08:06.702Z,999.43
2022-11-18T06:09:06.705Z,999.42
2022-11-18T06:10:06.712Z,999.42
2022-11-18T06:11:06.720Z,999.43
2022-11-18T06:12:06.727Z,999.48
2022-11-18T06:13:06.734Z,999.48
2022-11-18T06:14:06.740Z,999.44
2022-11-18T06:15:06.747Z,999.49
2022-11-18T06:16:06.755Z,999.55
2022-11-18T06:17:06.764Z,999.54
2022-11-18T06:18:06.770Z,999.47
2022-11-18T06:19:06.784Z,999.52
2022-11-18T06:20:06.784Z,999.57
2022-11-18T06:21:06.846Z,999.53
2022-11-18T06:22:06.800Z,999.59
2022-11-18T06:23:06.810Z,999.65
2022-11-18T06:24:06.812Z,999.59
2022-11-18T06:25:06.820Z,999.61
2022-11-18T06:26:06.826Z,999.62
2022-11-18T06:27:06.833Z,999.68
2022-11-18T06:28:06.839Z,999.69
2022-11-18T06:29:06.847Z,999.69
2022-11-18T06:30:06.855Z,999.67
2022-11-18T06:31:06.863Z,999.75
2022-11-18T06:32:06.867Z,999.69
2022-11-18T06:33:06.877Z,999.73
2022-11-18T06:34:06.878Z,999.73
2022-11-18T06:35:06.892Z,999.72
2022-11-18T06:36:06.896Z,999.74
2022-11-18T06:37:06.905Z,999.69
2022-11-18T06:38:06.909Z,999.72
2022-11-18T06:39:06.919Z,999.73
2022-11-18T06:40:06.923Z,999.75
2022-11-18T06:41:06.930Z,999.66
2022-11-18T06:42:06.937Z,999.72
2022-11-18T06:43:06.944Z,999.75
2022-11-18T06:44:06.951Z,999.76
2022-11-18T06:45:06.964Z,999.77
2022-11-18T06:46:09.357Z,999.83
2022-11-18T06:47:06.977Z,999.80
2022-11-18T06:48:06.979Z,999.81
2022-11-18T06:49:06.988Z,999.88
2022-11-18T06:50:06.994Z,999.87
2022-11-18T06:51:07.001Z,999.90
2022-11-18T06:52:07.010Z,999.90
2022-11-18T06:53:07.017Z,999.94
2022-11-18T06:54:10.665Z,999.94
2022-11-18T06:55:07.028Z,999.94
2022-11-18T06:56:07.036Z,999.95
2022-11-18T06:57:07.042Z,999.97
2022-11-18T06:58:07.049Z,999.93
2022-11-18T06:59:07.055Z,999.96
2022-11-18T07:00:07.083Z,999.93
2022-11-18T07:01:07.118Z,999.96
2022-11-18T07:02:07.075Z,999.90
2022-11-18T07:03:07.086Z,999.98
2022-11-18T07:04:07.096Z,999.96
2022-11-18T07:05:07.098Z,1000.03
2022-11-18T07:06:07.104Z,1000.03
2022-11-18T07:07:07.203Z,1000.06
2022-11-18T07:08:07.119Z,1000.03
2022-11-18T07:09:07.140Z,1000.09
2022-11-18T07:10:07.132Z,1000.14
2022-11-18T07:11:07.139Z,1000.18
2022-11-18T07:12:07.145Z,1000.15
2022-11-18T07:13:07.154Z,1000.19
2022-11-18T07:14:07.159Z,1000.19
2022-11-18T07:15:07.169Z,1000.15
2022-11-18T07:16:07.177Z,1000.21
2022-11-18T07:17:07.182Z,1000.19
2022-11-18T07:18:07.185Z,1000.24
2022-11-18T07:19:07.194Z,1000.25
2022-11-18T07:20:07.204Z,1000.20
2022-11-18T07:21:07.208Z,1000.33
2022-11-18T07:22:07.213Z,1000.21
2022-11-18T07:23:07.222Z,1000.23
2022-11-18T07:24:07.230Z,1000.23
2022-11-18T07:25:07.235Z,1000.12
2022-11-18T07:26:07.240Z,1000.27
2022-11-18T07:27:07.247Z,1000.29
2022-11-18T07:28:07.255Z,1000.26
2022-11-18T07:29:07.262Z,1000.27
2022-11-18T07:30:07.270Z,1000.23
2022-11-18T07:31:07.274Z,1000.34
2022-11-18T07:32:07.282Z,1000.28
2022-11-18T07:33:07.288Z,1000.28
2022-11-18T07:34:07.298Z,1000.31
2022-11-18T07:35:07.302Z,1000.35
2022-11-18T07:36:07.309Z,1000.26
2022-11-18T07:37:07.315Z,1000.29
2022-11-18T07:38:07.319Z,1000.27
2022-11-18T07:39:07.339Z,1000.28
2022-11-18T07:40:07.335Z,1000.29
2022-11-18T07:41:07.340Z,1000.25
2022-11-18T07:42:07.350Z,1000.24
2022-11-18T07:43:07.359Z,1000.41
2022-11-18T07:44:07.363Z,1000.29
2022-11-18T07:45:07.369Z,1000.32
2022-11-18T07:46:07.373Z,1000.32
2022-11-18T07:47:07.382Z,1000.34
2022-11-18T07:48:07.388Z,1000.33
2022-11-18T07:49:07.394Z,1000.37
2022-11-18T07:50:07.401Z,1000.36
2022-11-18T07:51:07.407Z,1000.37
2022-11-18T07:52:07.413Z,1000.41
2022-11-18T07:53:07.422Z,1000.51
2022-11-18T07:54:07.427Z,1000.48
2022-11-18T07:55:07.437Z,1000.47
2022-11-18T07:56:07.439Z,1000.51
2022-11-18T07:57:07.450Z,1000.44
2022-11-18T07:58:07.458Z,1000.56
2022-11-18T07:59:07.459Z,1000.47
2022-11-18T08:00:07.468Z,1000.55
2022-11-18T08:01:07.523Z,1000.54
2022-11-18T08:02:07.480Z,1000.61
2022-11-18T08:03:08.024Z,1000.61
2022-11-18T08:04:07.498Z,1000.60
2022-11-18T08:05:07.585Z,1000.61
2022-11-18T08:06:07.509Z,1000.60
2022-11-18T08:07:07.564Z,1000.63
2022-11-18T08:08:07.523Z,1000.70
2022-11-18T08:09:07.531Z,1000.70
2022-11-18T08:10:07.534Z,1000.67
2022-11-18T08:11:07.547Z,1000.64
2022-11-18T08:12:07.549Z,1000.66
2022-11-18T08:13:07.559Z,1000.69
2022-11-18T08:14:07.564Z,1000.62
2022-11-18T08:15:07.569Z,1000.70
2022-11-18T08:16:07.578Z,1000.65
2022-11-18T08:17:07.585Z,1000.73
2022-11-18T08:18:12.409Z,1000.69
2022-11-18T08:19:07.599Z,1000.70
2022-11-18T08:20:07.609Z,1000.72
2022-11-18T08:21:07.612Z,1000.74
2022-11-18T08:22:07.620Z,1000.74
2022-11-18T08:23:07.626Z,1000.76
2022-11-18T08:24:07.635Z,1000.74
2022-11-18T08:25:07.641Z,1000.73
2022-11-18T08:26:07.647Z,1000.82
2022-11-18T08:27:07.654Z,1000.82
2022-11-18T08:28:07.671Z,1000.85
2022-11-18T08:29:07.670Z,1000.79
2022-11-18T08:30:07.681Z,1000.78
2022-11-18T08:31:07.693Z,1000.81
2022-11-18T08:32:07.701Z,1000.79
2022-11-18T08:33:07.702Z,1000.84
2022-11-18T08:34:07.722Z,1000.83
2022-11-18T08:35:11.123Z,1000.82
2022-11-18T08:36:07.722Z,1000.92
2022-11-18T08:37:07.735Z,1000.95
2022-11-18T08:38:07.735Z,1000.87
2022-11-18T08:39:07.746Z,1000.96
2022-11-18T08:40:07.752Z,1000.98
2022-11-18T08:41:07.760Z,1000.88
2022-11-18T08:42:07.764Z,1000.97
2022-11-18T08:43:07.778Z,1001.01
2022-11-18T08:44:07.778Z,1001.02
2022-11-18T08:45:07.787Z,1001.10
2022-11-18T08:46:07.793Z,1001.00
2022-11-18T08:47:07.800Z,1000.97
2022-11-18T08:48:07.808Z,1001.04
2022-11-18T08:49:07.815Z,1001.10
2022-11-18T08:50:07.820Z,1001.05
2022-11-18T08:51:07.830Z,1001.09
2022-11-18T08:52:07.839Z,1001.11
2022-11-18T08:53:07.847Z,1001.15
2022-11-18T08:54:07.850Z,1001.14
2022-11-18T08:55:07.860Z,1001.12
2022-11-18T08:56:07.866Z,1001.13
2022-11-18T08:57:07.872Z,1001.14
2022-11-18T08:58:07.879Z,1001.14
2022-11-18T08:59:07.887Z,1001.19
2022-11-18T09:00:07.894Z,1001.15
2022-11-18T09:01:07.925Z,1001.15
2022-11-18T09:02:07.954Z,1001.35
2022-11-18T09:03:07.916Z,1001.20
2022-11-18T09:04:07.924Z,1001.16
2022-11-18T09:05:07.934Z,1001.23
2022-11-18T09:06:07.937Z,1001.16
2022-11-18T09:07:07.969Z,1001.23
2022-11-18T09:08:07.954Z,1001.27
2022-11-18T09:09:07.962Z,1001.31
2022-11-18T09:10:07.968Z,1001.34
2022-11-18T09:11:07.974Z,1001.34
2022-11-18T09:12:07.982Z,1001.37
2022-11-18T09:13:40.020Z,1001.43
2022-11-18T09:15:06.310Z,1001.44
2022-11-18T09:15:15.475Z,1001.46
2022-11-18T09:16:08.012Z,1001.49
2022-11-18T09:17:08.022Z,1001.51
2022-11-18T09:18:08.027Z,1001.50
2022-11-18T09:19:39.555Z,1001.46
2022-11-18T09:20:08.044Z,1001.56
2022-11-18T09:21:08.050Z,1001.59
2022-11-18T09:22:08.056Z,1001.65
2022-11-18T09:23:08.064Z,1001.64
2022-11-18T09:24:08.072Z,1001.63
2022-11-18T09:25:08.080Z,1001.70
2022-11-18T09:26:08.086Z,1001.65
2022-11-18T09:27:12.220Z,1001.66
2022-11-18T09:28:08.103Z,1001.67
2022-11-18T09:29:08.108Z,1001.72
2022-11-18T09:30:08.116Z,1001.73
2022-11-18T09:31:08.126Z,1001.67
2022-11-18T09:32:08.135Z,1001.69
2022-11-18T09:33:08.138Z,1001.72
2022-11-18T09:34:08.146Z,1001.71
2022-11-18T09:35:08.155Z,1001.74
2022-11-18T09:36:08.160Z,1001.69
2022-11-18T09:37:08.171Z,1001.80
2022-11-18T09:38:08.175Z,1001.80
2022-11-18T09:39:08.182Z,1001.77
2022-11-18T09:40:08.201Z,1001.77
2022-11-18T09:41:08.197Z,1001.75
2022-11-18T09:42:08.204Z,1001.76
2022-11-18T09:43:08.211Z,1001.70
2022-11-18T09:44:08.220Z,1001.83
2022-11-18T09:45:13.158Z,1001.82
2022-11-18T09:46:08.233Z,1001.84
2022-11-18T09:47:08.242Z,1001.83
2022-11-18T09:48:08.248Z,1001.90
2022-11-18T09:49:08.258Z,1001.83
2022-11-18T09:50:33.920Z,1001.83
2022-11-18T09:51:08.270Z,1001.87
2022-11-18T09:52:08.276Z,1001.86
2022-11-18T09:53:08.284Z,1001.91
2022-11-18T09:54:08.291Z,1001.89
2022-11-18T09:55:08.297Z,1001.89
2022-11-18T09:56:08.372Z,1001.83
2022-11-18T09:57:08.314Z,1001.91
2022-11-18T09:58:08.320Z,1002.00
2022-11-18T09:59:08.329Z,1002.00
2022-11-18T10:00:08.339Z,1002.01
2022-11-18T10:01:08.396Z,1002.02
2022-11-18T10:02:08.383Z,1002.00
2022-11-18T10:03:08.358Z,1002.13
2022-11-18T10:04:08.366Z,1002.04
2022-11-18T10:05:08.372Z,1002.10
2022-11-18T10:06:08.386Z,1002.06
2022-11-18T10:07:08.416Z,1002.10
2022-11-18T10:08:08.395Z,1002.09
2022-11-18T10:09:08.406Z,1002.08
2022-11-18T10:10:08.411Z,1002.12
2022-11-18T10:11:08.418Z,1002.11
2022-11-18T10:12:08.425Z,1002.12
2022-11-18T10:13:08.433Z,1002.07
2022-11-18T10:14:08.442Z,1002.10
2022-11-18T10:15:08.449Z,1002.07
2022-11-18T10:16:08.456Z,1002.08
2022-11-18T10:17:08.465Z,1002.04
2022-11-18T10:18:08.469Z,1002.08
2022-11-18T10:19:08.477Z,1002.07
2022-11-18T10:20:08.484Z,1002.02
2022-11-18T10:21:08.496Z,1002.08
2022-11-18T10:22:15.625Z,1002.03
2022-11-18T10:23:08.509Z,1002.12
2022-11-18T10:24:08.515Z,1002.07
2022-11-18T10:25:08.524Z,1002.06
2022-11-18T10:26:08.532Z,1002.08
2022-11-18T10:27:08.539Z,1002.11
2022-11-18T10:28:08.547Z,1002.12
2022-11-18T10:29:08.553Z,1002.06
2022-11-18T10:30:08.560Z,1002.05
2022-11-18T10:31:08.568Z,1002.10
2022-11-18T10:32:08.577Z,1002.11
2022-11-18T10:33:08.582Z,1002.08
2022-11-18T10:34:08.587Z,1002.18
2022-11-18T10:35:08.596Z,1002.18
2022-11-18T10:36:08.606Z,1002.18
2022-11-18T10:37:08.620Z,1002.12
2022-11-18T10:38:09.126Z,1002.14
2022-11-18T10:39:08.631Z,1002.23
2022-11-18T10:40:08.633Z,1002.19
2022-11-18T10:41:08.641Z,1002.22
2022-11-18T10:42:08.646Z,1002.17
2022-11-18T10:43:08.656Z,1002.23
2022-11-18T10:44:12.161Z,1002.23
2022-11-18T10:45:08.671Z,1002.26
2022-11-18T10:46:08.675Z,1002.23
2022-11-18T10:47:08.683Z,1002.25
2022-11-18T10:48:08.689Z,1002.27
2022-11-18T10:49:08.701Z,1002.22
2022-11-18T10:50:08.716Z,1002.22
2022-11-18T10:51:08.716Z,1002.24
2022-11-18T10:52:08.719Z,1002.28
2022-11-18T10:53:08.729Z,1002.25
2022-11-18T10:54:08.733Z,1002.37
2022-11-18T10:55:08.740Z,1002.41
2022-11-18T10:56:08.747Z,1002.36
2022-11-18T10:57:08.754Z,1002.42
2022-11-18T10:58:08.794Z,1002.37
2022-11-18T10:59:08.766Z,1002.38
2022-11-18T11:00:08.775Z,1002.37
2022-11-18T11:01:08.935Z,1002.39
2022-11-18T11:02:10.088Z,1002.42
2022-11-18T11:03:08.795Z,1002.39
2022-11-18T11:04:08.803Z,1002.45
2022-11-18T11:05:08.811Z,1002.43
2022-11-18T11:06:08.816Z,1002.44
2022-11-18T11:07:08.859Z,1002.47
2022-11-18T11:08:34.996Z,1002.48
2022-11-18T11:09:08.842Z,1002.55
2022-11-18T11:10:08.844Z,1002.55
2022-11-18T11:11:08.854Z,1002.56
2022-11-18T11:12:08.861Z,1002.46
2022-11-18T11:13:08.873Z,1002.55
2022-11-18T11:14:08.872Z,1002.57
2022-11-18T11:15:08.881Z,1002.55
2022-11-18T11:16:08.888Z,1002.52
2022-11-18T11:17:08.948Z,1002.52
2022-11-18T11:18:08.904Z,1002.53
2022-11-18T11:19:08.909Z,1002.49
2022-11-18T11:20:08.914Z,1002.52
2022-11-18T11:21:08.925Z,1002.55
2022-11-18T11:22:08.933Z,1002.54
2022-11-18T11:23:08.939Z,1002.52
2022-11-18T11:24:08.949Z,1002.54
2022-11-18T11:25:08.954Z,1002.57
2022-11-18T11:28:16.767Z,1002.42
2022-11-18T11:29:08.985Z,1002.61
2022-11-18T11:30:08.995Z,1002.58
2022-11-18T11:31:08.997Z,1002.57
2022-11-18T11:32:09.006Z,1002.56
2022-11-18T11:33:09.012Z,1002.59
2022-11-18T11:34:09.019Z,1002.57
2022-11-18T11:35:09.023Z,1002.59
2022-11-18T11:36:09.034Z,1002.62
2022-11-18T11:37:09.044Z,1002.61
2022-11-18T11:38:09.047Z,1002.65
2022-11-18T11:39:09.054Z,1002.61
2022-11-18T11:40:09.065Z,1002.64
2022-11-18T11:41:09.070Z,1002.65
2022-11-18T11:42:09.078Z,1002.66
2022-11-18T11:43:09.085Z,1002.59
2022-11-18T11:44:09.094Z,1002.57
2022-11-18T11:45:09.110Z,1002.60
2022-11-18T11:46:09.108Z,1002.62
2022-11-18T11:47:09.118Z,1002.64
2022-11-18T11:48:09.121Z,1002.54
2022-11-18T11:49:09.131Z,1002.65
2022-11-18T11:50:09.137Z,1002.62
2022-11-18T11:51:09.145Z,1002.67
2022-11-18T11:52:09.151Z,1002.66
2022-11-18T11:53:09.160Z,1002.69
2022-11-18T11:54:09.174Z,1002.60
2022-11-18T11:55:09.174Z,1002.64
2022-11-18T11:56:09.183Z,1002.63
2022-11-18T11:57:09.191Z,1002.64
2022-11-18T11:58:09.195Z,1002.66
2022-11-18T11:59:09.216Z,1002.62
2022-11-18T12:00:09.214Z,1002.66
2022-11-18T12:01:09.223Z,1002.70
2022-11-18T12:02:09.226Z,1002.64
2022-11-18T12:03:09.249Z,1002.72
2022-11-18T12:04:09.241Z,1002.72
2022-11-18T12:05:09.252Z,1002.68
2022-11-18T12:06:09.258Z,1002.70
2022-11-18T12:07:09.342Z,1002.66
2022-11-18T12:08:09.271Z,1002.71
2022-11-18T12:09:09.280Z,1002.70
2022-11-18T12:10:09.287Z,1002.72
2022-11-18T12:11:09.294Z,1002.73
2022-11-18T12:12:09.303Z,1002.70
2022-11-18T12:13:09.310Z,1002.75
2022-11-18T12:14:09.316Z,1002.72
2022-11-18T12:15:09.324Z,1002.83
2022-11-18T12:16:09.332Z,1002.83
2022-11-18T12:17:09.342Z,1002.86
2022-11-18T12:18:09.346Z,1002.83
2022-11-18T12:19:09.355Z,1002.84
2022-11-18T12:20:09.367Z,1002.83
2022-11-18T12:21:09.372Z,1002.88